Time;durP1;ratioP1;P1;durP2;ratioP2;P2;SDS_P1;SDS_P2;PMS_P1;PMS_P2;Temp;Humidity;BMP_temperature;BMP_pressure;BME280_temperature;BME280_humidity;BME280_pressure;Samples;Min_cycle;Max_cycle;Signal;HPM_P1;HPM_P2
2022/06/12 00:01:48;;;;;;;6.13;5.53;;;;;;;17.03;96.16;98939.06;5051672;28;20035;-72
2022/06/12 00:04:13;;;;;;;7.70;5.90;;;;;;;17.01;95.90;98933.81;5051680;28;20036;-72
2022/06/12 00:06:38;;;;;;;5.93;5.32;;;;;;;17.08;95.64;98950.00;5053694;28;20079;-73
2022/06/12 00:09:04;;;;;;;8.40;4.85;;;;;;;17.10;95.83;98950.41;5054602;28;20013;-73
2022/06/12 00:11:30;;;;;;;6.78;5.40;;;;;;;17.06;94.91;98939.06;5052373;28;20021;-72
2022/06/12 00:13:59;;;;;;;5.38;4.88;;;;;;;17.13;94.41;98949.63;5052592;28;20024;-72
2022/06/12 00:16:28;;;;;;;11.38;5.35;;;;;;;17.10;94.65;98941.94;5053672;28;20021;-73
2022/06/12 00:18:55;;;;;;;7.25;5.32;;;;;;;17.14;95.12;98942.78;5052636;28;20025;-73
2022/06/12 00:21:20;;;;;;;8.18;5.57;;;;;;;17.12;94.87;98950.81;5049597;28;20034;-72
2022/06/12 00:23:51;;;;;;;5.80;5.10;;;;;;;17.12;95.54;98946.00;5053520;28;20040;-73
2022/06/12 00:26:30;;;;;;;6.13;5.20;;;;;;;17.14;95.44;98947.63;5052963;28;20060;-73
2022/06/12 00:29:05;;;;;;;11.48;6.20;;;;;;;17.11;95.86;98946.38;5053157;28;20021;-72
2022/06/12 00:31:32;;;;;;;6.40;5.68;;;;;;;17.07;96.70;98945.56;5054368;28;20037;-72
2022/06/12 00:33:58;;;;;;;6.50;5.88;;;;;;;17.10;96.13;98937.09;5045089;28;20539;-72
2022/06/12 00:36:24;;;;;;;7.88;5.10;;;;;;;17.13;96.31;98932.66;5034100;28;20033;-72
2022/06/12 00:38:49;;;;;;;5.90;5.38;;;;;;;17.10;96.71;98936.28;5048905;28;20025;-72
2022/06/12 00:41:15;;;;;;;5.45;4.95;;;;;;;17.09;96.54;98935.50;5047062;28;20033;-72
2022/06/12 00:43:40;;;;;;;8.00;5.78;;;;;;;17.06;96.95;98938.28;5051627;28;20083;-73
2022/06/12 00:46:07;;;;;;;5.80;5.10;;;;;;;16.97;97.02;98932.94;5051883;28;20469;-73
2022/06/12 00:48:37;;;;;;;7.47;5.13;;;;;;;17.02;97.38;98941.06;5054014;28;20029;-72
2022/06/12 00:51:09;;;;;;;7.20;5.90;;;;;;;16.97;98.07;98942.22;5053613;28;20441;-72
2022/06/12 00:53:52;;;;;;;8.48;6.05;;;;;;;17.01;98.33;98944.28;5051272;28;20028;-72
2022/06/12 00:56:24;;;;;;;12.85;6.05;;;;;;;16.97;98.21;98945.03;5053674;28;20032;-72
2022/06/12 00:58:57;;;;;;;9.73;6.05;;;;;;;16.92;98.95;98945.41;5051644;28;20037;-72
2022/06/12 01:01:40;;;;;;;10.20;6.22;;;;;;;16.88;99.08;98936.09;5052985;28;20032;-72
2022/06/12 01:06:55;;;;;;;10.20;5.93;;;;;;;16.93;98.96;98943.38;5052681;28;20119;-73
2022/06/12 01:09:24;;;;;;;;;;;;;;;16.97;98.90;98942.22;5053405;28;20082;-72
2022/06/12 01:11:53;;;;;;;7.60;5.35;;;;;;;16.92;99.18;98936.94;5053407;28;19916;-73
2022/06/12 01:14:23;;;;;;;7.28;5.70;;;;;;;16.86;98.99;98943.34;5052317;28;20100;-72
2022/06/12 01:16:49;;;;;;;12.43;5.65;;;;;;;16.90;99.45;98944.19;5053396;28;20052;-72
2022/06/12 01:19:44;;;;;;;9.00;5.95;;;;;;;16.91;99.55;98940.97;5051956;28;20075;-72
2022/06/12 01:22:37;;;;;;;7.25;6.15;;;;;;;16.94;99.48;98942.19;5048195;28;20069;-72
2022/06/12 01:25:02;;;;;;;10.25;6.80;;;;;;;16.95;99.43;98943.81;5052339;28;20032;-72
2022/06/12 01:27:46;;;;;;;7.57;5.88;;;;;;;16.97;99.75;98935.78;5051700;28;20025;-72
2022/06/12 01:30:21;;;;;;;9.70;6.65;;;;;;;16.89;100.00;98932.06;5053244;28;20017;-72
2022/06/12 01:33:00;;;;;;;10.15;6.70;;;;;;;16.88;100.00;98941.72;5052848;28;20032;-72
2022/06/12 01:35:31;;;;;;;11.93;7.05;;;;;;;16.88;100.00;98936.09;5051590;28;20025;-72
2022/06/12 01:38:09;;;;;;;7.88;6.00;;;;;;;16.84;100.00;98936.09;5051738;28;20503;-72
2022/06/12 01:40:41;;;;;;;8.38;6.38;;;;;;;16.81;100.00;98924.75;5051144;28;20032;-73
2022/06/12 01:43:06;;;;;;;8.93;6.65;;;;;;;16.78;100.00;98929.16;5051677;28;20052;-72
2022/06/12 01:45:49;;;;;;;9.55;7.20;;;;;;;16.73;100.00;98921.06;5052676;28;20099;-72
2022/06/12 01:48:30;;;;;;;9.13;7.57;;;;;;;16.66;100.00;98924.63;5051684;28;20032;-72
2022/06/12 01:51:02;;;;;;;9.10;7.32;;;;;;;16.60;100.00;98920.53;5052853;28;20017;-72
2022/06/12 01:53:36;;;;;;;10.68;7.22;;;;;;;16.58;100.00;98917.28;5051286;28;20025;-72
2022/06/12 01:56:13;;;;;;;14.27;7.18;;;;;;;16.62;100.00;98925.78;5052698;28;20032;-72
2022/06/12 01:59:05;;;;;;;9.52;7.25;;;;;;;16.60;100.00;98923.34;5032355;28;20508;-72
2022/06/12 02:01:33;;;;;;;12.95;8.90;;;;;;;16.61;100.00;98924.97;5020952;28;20056;-72
2022/06/12 02:04:11;;;;;;;9.10;7.82;;;;;;;16.64;100.00;98927.00;5052604;28;20033;-72
2022/06/12 02:06:43;;;;;;;9.27;7.50;;;;;;;16.65;100.00;98923.00;5052332;28;20484;-72
2022/06/12 02:09:09;;;;;;;14.40;7.40;;;;;;;16.74;100.00;98919.03;5050720;28;20028;-72
2022/06/12 02:14:59;;;;;;;10.00;7.25;;;;;;;16.90;100.00;98924.41;5052261;28;20044;-72
2022/06/12 02:17:32;;;;;;;8.05;6.93;;;;;;;16.93;100.00;98923.63;5028807;28;20518;-72
2022/06/12 02:20:00;;;;;;;7.43;6.60;;;;;;;16.96;100.00;98929.31;5051749;28;20035;-72
2022/06/12 02:22:28;;;;;;;7.90;6.95;;;;;;;16.97;100.00;98928.09;5050482;28;20033;-72
2022/06/12 02:25:02;;;;;;;10.30;7.43;;;;;;;17.23;100.00;98928.31;5050667;28;20095;-72
2022/06/12 02:27:36;;;;;;;8.93;6.90;;;;;;;17.10;99.91;98922.16;5050533;28;20075;-72
2022/06/12 02:30:16;;;;;;;32.05;7.15;;;;;;;17.36;99.34;98937.25;5052011;28;20032;-72
2022/06/12 02:32:48;;;;;;;10.23;7.70;;;;;;;17.36;97.90;98923.94;5050793;28;20067;-73
2022/06/12 02:35:33;;;;;;;11.82;7.80;;;;;;;17.40;97.60;98936.09;5049980;28;20043;-72
2022/06/12 02:38:08;;;;;;;11.88;6.57;;;;;;;17.49;97.13;98941.38;5051033;28;20150;-72
2022/06/12 02:40:39;;;;;;;8.68;6.93;;;;;;;17.52;96.70;98932.13;5050535;28;20348;-72
2022/06/12 02:43:17;;;;;;;8.93;6.95;;;;;;;17.61;96.50;98930.94;5049254;28;20029;-72
2022/06/12 02:45:47;;;;;;;11.20;7.70;;;;;;;17.51;96.61;98941.81;5050560;28;20047;-72
2022/06/12 02:48:13;;;;;;;12.70;7.30;;;;;;;17.60;96.28;98923.66;5051115;28;20102;-72
2022/06/12 02:50:54;;;;;;;8.32;6.95;;;;;;;17.70;95.05;98922.09;5051846;28;20025;-72
2022/06/12 02:53:51;;;;;;;9.18;7.38;;;;;;;17.65;95.48;98931.78;5050834;28;20025;-72
2022/06/12 02:56:42;;;;;;;10.77;7.38;;;;;;;17.54;96.18;98924.06;5023329;28;20051;-72
2022/06/12 02:59:46;;;;;;;12.25;7.30;;;;;;;17.62;94.75;98916.41;5034908;28;20091;-72
2022/06/12 03:02:32;;;;;;;8.63;7.28;;;;;;;17.62;95.65;98936.19;5035475;28;20534;-72
2022/06/12 03:05:30;;;;;;;10.63;7.97;;;;;;;17.54;96.15;98935.34;5050578;28;20035;-72
2022/06/12 03:08:01;;;;;;;12.35;8.73;;;;;;;17.35;96.93;98936.47;5016016;28;20423;-72
2022/06/12 03:10:32;;;;;;;11.50;7.72;;;;;;;17.20;97.92;98921.44;5050791;28;20577;-72
2022/06/12 03:12:59;;;;;;;10.25;8.02;;;;;;;17.35;96.94;98936.47;5051347;28;20372;-72
2022/06/12 03:15:34;;;;;;;9.93;8.43;;;;;;;17.23;97.82;98946.06;5051473;28;20066;-72
2022/06/12 03:18:01;;;;;;;9.43;8.27;;;;;;;17.25;98.57;98935.19;5051351;28;20036;-71
2022/06/12 03:20:40;;;;;;;9.60;8.57;;;;;;;17.16;98.84;98929.06;5051352;28;20028;-71
2022/06/12 03:23:33;;;;;;;9.65;8.40;;;;;;;17.12;99.25;98933.88;5049277;28;20029;-72
2022/06/12 03:26:01;;;;;;;12.90;9.18;;;;;;;17.03;100.00;98934.22;5040247;28;20126;-72
2022/06/12 03:28:44;;;;;;;12.25;8.55;;;;;;;17.02;100.00;98940.28;5051269;28;20052;-72
2022/06/12 03:31:26;;;;;;;11.25;8.75;;;;;;;16.97;100.00;98927.31;5050005;28;20419;-72
2022/06/12 03:34:10;;;;;;;11.82;9.25;;;;;;;16.95;100.00;98935.31;5051237;28;20074;-72
2022/06/12 03:36:44;;;;;;;12.32;8.65;;;;;;;16.81;100.00;98919.91;5037719;28;20021;-72
2022/06/12 03:39:16;;;;;;;10.95;8.77;;;;;;;16.79;100.00;98932.81;5051097;28;20029;-72
2022/06/12 03:41:44;;;;;;;14.13;9.50;;;;;;;16.86;100.00;98937.69;5051034;28;20031;-72
2022/06/12 03:44:22;;;;;;;11.48;9.57;;;;;;;16.77;100.00;98927.53;5031063;28;20056;-72
2022/06/12 03:46:53;;;;;;;12.82;8.93;;;;;;;16.84;100.00;98941.72;5036290;28;20447;-72
2022/06/12 03:49:42;;;;;;;15.07;9.90;;;;;;;16.87;100.00;98937.28;5049667;28;20099;-72
2022/06/12 03:52:15;;;;;;;10.40;9.13;;;;;;;16.85;100.00;98936.88;5049094;28;20090;-71
2022/06/12 03:54:58;;;;;;;13.65;9.95;;;;;;;16.94;100.00;98937.34;5049647;28;20052;-72
2022/06/12 04:00:30;;;;;;;12.57;10.05;;;;;;;16.98;100.00;98935.38;5050888;28;20055;-72
2022/06/12 04:03:04;;;;;;;10.13;8.63;;;;;;;16.89;100.00;98934.09;5030701;28;20033;-72
2022/06/12 04:05:41;;;;;;;11.57;9.55;;;;;;;16.91;100.00;98935.31;5031201;28;20062;-72
2022/06/12 04:08:14;;;;;;;10.48;9.43;;;;;;;16.82;100.00;98932.00;5030944;28;20469;-72
2022/06/12 04:10:40;;;;;;;12.18;10.15;;;;;;;16.88;100.00;98936.09;5029000;28;20030;-73
2022/06/12 04:13:10;;;;;;;14.35;9.98;;;;;;;16.85;100.00;98928.41;5031144;28;20024;-73
2022/06/12 04:16:02;;;;;;;12.25;10.57;;;;;;;16.94;100.00;98943.00;5036515;28;20025;-72
2022/06/12 04:18:30;;;;;;;15.10;10.35;;;;;;;17.01;100.00;98944.28;5054392;28;20484;-72
2022/06/12 04:21:10;;;;;;;14.70;11.55;;;;;;;16.97;100.00;98930.13;5053398;28;20063;-72
2022/06/12 04:23:50;;;;;;;11.75;10.18;;;;;;;17.08;100.00;98941.53;5054330;28;20021;-72
2022/06/12 04:26:28;;;;;;;14.30;11.27;;;;;;;17.06;100.00;98947.56;5054251;28;20443;-72
2022/06/12 04:28:58;;;;;;;12.50;10.55;;;;;;;17.07;100.00;98943.53;5053259;28;20412;-72
2022/06/12 04:31:24;;;;;;;12.13;10.77;;;;;;;17.04;100.00;98938.66;5053656;28;20035;-72
2022/06/12 04:34:18;;;;;;;15.70;10.40;;;;;;;17.15;100.00;98935.94;5052926;28;20029;-72
2022/06/12 04:36:47;;;;;;;15.23;10.90;;;;;;;17.13;100.00;98935.50;5051779;28;20036;-72
2022/06/12 04:39:15;;;;;;;16.08;11.90;;;;;;;17.13;100.00;98927.00;5052810;28;20076;-72
2022/06/12 04:41:40;;;;;;;16.33;10.75;;;;;;;17.20;100.00;98940.41;5053145;28;20365;-72
2022/06/12 04:44:07;;;;;;;10.90;9.77;;;;;;;17.25;100.00;98942.84;5053862;28;20029;-73
2022/06/12 04:46:36;;;;;;;12.25;10.40;;;;;;;17.26;100.00;98944.47;5053729;28;20035;-72
2022/06/12 04:49:02;;;;;;;12.27;9.68;;;;;;;17.30;100.00;98945.28;5053779;28;20036;-71
2022/06/12 04:51:29;;;;;;;12.93;9.82;;;;;;;17.34;100.00;98942.50;5051492;28;20036;-72
2022/06/12 04:53:54;;;;;;;16.00;9.15;;;;;;;17.29;100.00;98938.03;5051889;28;20029;-71
2022/06/12 04:56:23;;;;;;;11.52;9.48;;;;;;;17.38;100.00;98963.94;5053926;28;20025;-71
2022/06/12 04:58:51;;;;;;;11.65;9.02;;;;;;;17.39;100.00;98959.91;5052991;28;20045;-71
2022/06/12 05:01:17;;;;;;;17.63;9.55;;;;;;;17.38;100.00;98951.84;5052914;28;20033;-72
2022/06/12 05:03:42;;;;;;;11.80;9.98;;;;;;;17.40;100.00;98957.91;5052891;28;20021;-72
2022/06/12 05:06:13;;;;;;;12.00;9.05;;;;;;;17.43;100.00;98961.94;5053472;28;20559;-75
2022/06/12 05:08:38;;;;;;;14.38;9.55;;;;;;;17.41;100.00;98962.34;5053680;28;20420;-72
2022/06/12 05:11:04;;;;;;;9.27;8.38;;;;;;;17.39;100.00;98965.56;5050007;28;20025;-72
2022/06/12 05:13:29;;;;;;;24.40;11.80;;;;;;;17.38;100.00;98958.28;5051570;28;20318;-72
2022/06/12 05:15:55;;;;;;;9.93;8.55;;;;;;;17.31;100.00;98951.78;5050077;28;20025;-72
2022/06/12 05:18:20;;;;;;;10.57;8.63;;;;;;;17.40;100.00;98969.19;5050351;28;20037;-71
2022/06/12 05:20:47;;;;;;;10.20;9.27;;;;;;;17.39;100.00;98976.06;5051141;28;20029;-71
2022/06/12 05:23:13;;;;;;;15.95;10.30;;;;;;;17.41;100.00;98970.81;5053197;28;20403;-71
2022/06/12 05:25:42;;;;;;;12.13;9.23;;;;;;;17.39;100.00;98970.41;5051666;28;20468;-72
2022/06/12 05:28:09;;;;;;;16.98;10.20;;;;;;;17.39;100.00;98974.03;5049009;28;20025;-71
2022/06/12 05:30:36;;;;;;;10.70;9.60;;;;;;;17.40;100.00;98981.31;5051182;28;20044;-72
2022/06/12 05:33:02;;;;;;;9.82;8.73;;;;;;;17.43;100.00;98976.88;5050480;28;20726;-72
2022/06/12 05:35:30;;;;;;;11.05;9.23;;;;;;;17.47;100.00;98986.19;5049132;28;20111;-72
2022/06/12 05:37:58;;;;;;;13.63;10.65;;;;;;;17.48;100.00;98990.63;5051525;28;20029;-71
2022/06/12 05:40:27;;;;;;;13.05;10.25;;;;;;;17.46;100.00;98993.06;5050871;28;20104;-71
2022/06/12 05:42:53;;;;;;;11.65;10.45;;;;;;;17.48;100.00;98992.66;5046234;28;20037;-71
2022/06/12 05:45:22;;;;;;;12.52;11.25;;;;;;;17.46;100.00;98990.22;5047486;28;20039;-71
2022/06/12 05:47:52;;;;;;;12.27;10.60;;;;;;;17.44;100.00;98991.84;5051263;28;20464;-71
2022/06/12 05:50:19;;;;;;;11.13;10.13;;;;;;;17.44;100.00;98984.16;5050998;28;20444;-71
2022/06/12 05:52:45;;;;;;;11.73;10.10;;;;;;;17.47;100.00;98988.22;5051536;28;20051;-72
2022/06/12 05:55:11;;;;;;;12.93;10.98;;;;;;;17.56;100.00;98990.69;5050549;28;20520;-72
2022/06/12 05:57:37;;;;;;;14.98;12.98;;;;;;;17.56;100.00;98996.34;5044444;28;20109;-70
2022/06/12 06:00:07;;;;;;;14.85;13.13;;;;;;;17.56;100.00;98991.53;5045646;28;20500;-70
2022/06/12 06:02:34;;;;;;;14.57;12.32;;;;;;;17.56;100.00;98979.38;5044488;28;20115;-71
2022/06/12 06:05:00;;;;;;;12.27;10.98;;;;;;;17.49;100.00;98969.66;5049063;28;20259;-71
2022/06/12 06:07:26;;;;;;;12.20;10.98;;;;;;;17.62;100.00;98987.09;5033488;28;20029;-73
2022/06/12 06:09:51;;;;;;;13.10;10.57;;;;;;;17.66;100.00;98989.94;5049422;28;20078;-73
2022/06/12 06:12:18;;;;;;;12.25;11.05;;;;;;;17.71;99.11;98992.41;5052169;28;20479;-72
2022/06/12 06:14:44;;;;;;;14.68;11.68;;;;;;;17.72;99.06;98993.22;5050699;28;20033;-71
2022/06/12 06:17:09;;;;;;;22.05;12.20;;;;;;;17.78;99.54;98995.28;5052288;28;20032;-73
2022/06/12 06:19:35;;;;;;;13.38;11.95;;;;;;;17.82;99.52;98993.25;5051326;28;20033;-72
2022/06/12 06:22:00;;;;;;;13.90;11.32;;;;;;;17.86;99.28;98998.13;5050634;28;20479;-73
2022/06/12 06:24:26;;;;;;;12.98;9.07;;;;;;;17.85;98.61;98988.84;5052353;28;20051;-72
2022/06/12 06:26:51;;;;;;;13.95;10.15;;;;;;;17.83;98.76;98977.13;5051899;28;20104;-73
2022/06/12 06:29:17;;;;;;;10.90;9.80;;;;;;;17.89;98.40;98986.84;5050007;28;20024;-71
2022/06/12 06:31:43;;;;;;;10.98;9.50;;;;;;;17.99;97.49;98999.44;5051506;28;20033;-73
2022/06/12 06:34:08;;;;;;;10.27;9.05;;;;;;;17.96;97.60;98998.19;5051304;28;20041;-73
2022/06/12 06:36:34;;;;;;;13.90;9.07;;;;;;;17.93;96.65;99001.00;5052744;28;20025;-73
2022/06/12 06:39:00;;;;;;;10.63;9.63;;;;;;;17.94;96.75;98994.13;5052410;28;20034;-74
2022/06/12 06:41:26;;;;;;;11.70;9.73;;;;;;;17.95;97.78;98995.75;5054086;28;20043;-75
2022/06/12 06:46:37;;;;;;;12.23;8.98;;;;;;;17.94;97.51;99000.63;5048661;28;20102;-73
2022/06/12 06:49:03;;;;;;;12.70;10.43;;;;;;;18.01;97.81;99011.16;5042477;28;20025;-74
2022/06/12 06:51:30;;;;;;;12.93;9.70;;;;;;;18.02;96.93;99014.78;5033512;28;20383;-75
2022/06/12 06:53:56;;;;;;;9.65;8.75;;;;;;;18.03;97.59;99013.59;5030001;28;20051;-74
2022/06/12 06:56:23;;;;;;;9.70;8.63;;;;;;;18.06;97.62;99013.63;5049127;28;20025;-73
2022/06/12 06:58:49;;;;;;;10.95;8.30;;;;;;;18.05;97.08;99012.00;5051937;28;20047;-77
2022/06/12 07:01:15;;;;;;;10.13;9.07;;;;;;;18.07;98.20;99015.25;5049668;28;20106;-72
2022/06/12 07:03:40;;;;;;;12.27;9.52;;;;;;;18.10;97.22;99022.13;5045789;28;20036;-75
2022/06/12 07:06:09;;;;;;;11.05;9.95;;;;;;;18.15;98.24;99030.22;5050130;28;20464;-73
2022/06/12 07:08:34;;;;;;;10.25;9.25;;;;;;;18.17;97.93;99033.50;5051593;28;20110;-72
2022/06/12 07:11:00;;;;;;;12.43;8.50;;;;;;;18.18;98.89;99034.28;5034117;28;20057;-74
2022/06/12 07:13:25;;;;;;;11.15;9.25;;;;;;;18.16;98.61;99036.72;5034628;28;20029;-74
2022/06/12 07:15:51;;;;;;;11.48;8.90;;;;;;;18.15;99.72;99035.88;5040072;28;20033;-74
2022/06/12 07:18:18;;;;;;;11.15;9.20;;;;;;;18.12;98.69;99044.38;5031937;28;20037;-72
2022/06/12 07:20:52;;;;;;;10.32;7.75;;;;;;;18.21;98.77;99064.63;5043087;28;20029;-74
2022/06/12 07:23:20;;;;;;;14.45;8.68;;;;;;;18.21;98.76;99064.63;5045925;28;20037;-73
2022/06/12 07:25:52;;;;;;;9.02;8.23;;;;;;;18.22;99.56;99069.91;5046074;28;20036;-71
2022/06/12 07:28:18;;;;;;;14.93;9.32;;;;;;;18.15;99.63;99054.91;5044269;28;20027;-73
2022/06/12 07:30:44;;;;;;;14.07;9.65;;;;;;;18.29;100.00;99068.31;5042454;28;20427;-75
2022/06/12 07:33:10;;;;;;;8.65;7.80;;;;;;;18.20;100.00;99077.16;5044939;28;20033;-72
2022/06/12 07:35:39;;;;;;;11.65;9.02;;;;;;;18.15;100.00;99081.16;5044416;28;20060;-71
2022/06/12 07:38:06;;;;;;;11.57;7.45;;;;;;;17.99;98.69;99080.66;5037756;28;20606;-70
2022/06/12 07:40:41;;;;;;;9.52;7.03;;;;;;;18.06;99.64;99098.50;5039623;28;20021;-73
2022/06/12 07:43:07;;;;;;;8.02;7.22;;;;;;;18.02;99.56;99096.81;5027107;28;20108;-71
2022/06/12 07:45:34;;;;;;;8.13;7.32;;;;;;;17.96;99.81;99094.38;5043289;28;20120;-71
2022/06/12 07:47:59;;;;;;;9.90;7.75;;;;;;;17.93;100.00;99098.00;5040524;28;20101;-73
2022/06/12 07:50:25;;;;;;;8.50;7.72;;;;;;;17.94;100.00;99099.63;5043487;28;20025;-72
2022/06/12 07:52:50;;;;;;;10.15;7.80;;;;;;;18.00;100.00;99099.25;5047296;28;20112;-71
2022/06/12 07:55:18;;;;;;;8.52;7.63;;;;;;;17.97;100.00;99100.84;5051562;28;20043;-72
2022/06/12 07:57:44;;;;;;;10.35;7.97;;;;;;;17.97;100.00;99103.66;5050869;28;20037;-70
2022/06/12 08:00:13;;;;;;;8.85;7.78;;;;;;;18.00;100.00;99111.38;5053663;28;20049;-71
2022/06/12 08:02:40;;;;;;;8.85;7.90;;;;;;;18.06;100.00;99111.88;5049406;28;20025;-73
2022/06/12 08:05:05;;;;;;;8.45;7.65;;;;;;;18.08;100.00;99104.56;5042000;28;20013;-73
2022/06/12 08:07:32;;;;;;;8.15;6.82;;;;;;;18.05;100.00;99105.38;5050545;28;20510;-73
2022/06/12 08:09:57;;;;;;;8.02;7.22;;;;;;;18.09;99.30;99102.56;5053291;28;20036;-73
2022/06/12 08:12:22;;;;;;;8.20;7.13;;;;;;;18.17;100.00;99103.41;5048450;28;20410;-72
2022/06/12 08:14:48;;;;;;;11.50;7.30;;;;;;;18.16;100.00;99087.66;5053580;28;20099;-73
2022/06/12 08:17:14;;;;;;;7.47;6.80;;;;;;;18.31;100.00;99095.00;5051035;28;20032;-73
2022/06/12 08:22:23;;;;;;;14.75;7.22;;;;;;;18.40;100.00;99103.13;5052361;28;20039;-73
2022/06/12 08:24:49;;;;;;;11.20;7.47;;;;;;;18.46;100.00;99095.06;5050492;28;20044;-73
2022/06/12 08:27:15;;;;;;;8.85;7.97;;;;;;;18.60;99.46;99105.63;5050951;28;20061;-73
2022/06/12 08:29:41;;;;;;;8.95;8.05;;;;;;;18.76;99.41;99106.13;5051140;28;20032;-73
2022/06/12 08:32:20;;;;;;;11.68;9.00;;;;;;;18.76;99.78;99111.78;5052873;28;20029;-73
2022/06/12 08:34:59;;;;;;;12.20;9.65;;;;;;;18.74;99.14;99107.72;5046525;28;20103;-73
2022/06/12 08:37:30;;;;;;;10.82;8.93;;;;;;;18.77;99.66;99119.06;5050533;28;20044;-73
2022/06/12 08:39:57;;;;;;;9.73;8.82;;;;;;;18.73;97.23;99118.22;5048036;28;20124;-71
2022/06/12 08:42:29;;;;;;;12.27;8.55;;;;;;;18.75;97.49;99120.66;5048856;28;20033;-73
2022/06/12 08:45:18;;;;;;;11.23;9.48;;;;;;;18.60;97.17;99123.47;5051133;28;20541;-74
2022/06/12 08:48:00;;;;;;;15.18;11.63;;;;;;;18.77;98.91;99129.56;5048467;28;20090;-73
2022/06/12 08:50:36;;;;;;;14.15;10.48;;;;;;;18.76;97.41;99145.78;5042310;28;20025;-74
2022/06/12 08:53:20;;;;;;;11.88;9.95;;;;;;;19.05;96.85;99143.06;5056579;28;20472;-73
2022/06/12 08:56:05;;;;;;;12.38;9.60;;;;;;;19.10;95.99;99144.69;5040444;28;20365;-73
2022/06/12 08:58:34;;;;;;;18.60;11.00;;;;;;;18.96;96.76;99133.28;5035526;28;20037;-74
2022/06/12 09:01:01;;;;;;;12.52;9.70;;;;;;;18.85;98.18;99121.91;5044502;28;20445;-74
2022/06/12 09:03:31;;;;;;;14.05;12.27;;;;;;;18.94;98.79;99133.69;5049115;28;20466;-73
2022/06/12 09:05:59;;;;;;;14.90;11.60;;;;;;;19.07;99.15;99137.78;5048204;28;20028;-72
2022/06/12 09:08:48;;;;;;;12.10;10.32;;;;;;;19.14;98.86;99147.53;5041166;28;20115;-72
2022/06/12 09:11:30;;;;;;;22.42;11.18;;;;;;;19.18;97.81;99132.13;5047260;28;20119;-72
2022/06/12 09:14:04;;;;;;;14.07;10.77;;;;;;;19.18;98.41;99137.00;5050834;28;20365;-72
2022/06/12 09:16:58;;;;;;;11.25;10.07;;;;;;;19.21;97.63;99141.88;5033191;28;20036;-72
2022/06/12 09:19:41;;;;;;;11.48;10.30;;;;;;;19.29;96.96;99149.19;5028350;28;20048;-72
2022/06/12 09:22:12;;;;;;;12.38;9.98;;;;;;;19.22;97.04;99152.81;5051276;28;20033;-72
2022/06/12 09:24:40;;;;;;;11.73;8.95;;;;;;;19.40;96.00;99151.22;5049262;28;20064;-73
2022/06/12 09:27:26;;;;;;;12.10;9.15;;;;;;;19.35;97.45;99141.88;5044937;28;20033;-73
2022/06/12 09:30:03;;;;;;;16.35;10.93;;;;;;;19.23;98.41;99136.59;5052119;28;20033;-72
2022/06/12 09:32:47;;;;;;;12.90;10.85;;;;;;;19.24;99.31;99148.75;5051922;28;20108;-72
2022/06/12 09:35:45;;;;;;;11.50;10.13;;;;;;;19.31;99.20;99163.75;5051999;28;20090;-73
2022/06/12 09:38:22;;;;;;;19.02;12.27;;;;;;;19.36;98.78;99157.69;5050619;28;20114;-73
2022/06/12 09:41:07;;;;;;;15.23;10.98;;;;;;;19.24;99.90;99157.25;5052572;28;20555;-73
2022/06/12 09:43:44;;;;;;;15.10;11.18;;;;;;;19.18;100.00;99157.66;5047845;28;20024;-72
2022/06/12 09:46:27;;;;;;;9.48;8.18;;;;;;;19.02;99.22;99148.72;5042169;28;20040;-73
2022/06/12 09:49:10;;;;;;;9.13;8.32;;;;;;;19.13;99.38;99162.91;5051137;28;20021;-73
2022/06/12 09:52:13;;;;;;;10.73;8.68;;;;;;;19.14;100.00;99154.00;5046218;28;20052;-73
2022/06/12 09:55:11;;;;;;;10.23;7.93;;;;;;;19.12;99.01;99156.44;5051573;28;20028;-75
2022/06/12 09:57:43;;;;;;;10.25;7.70;;;;;;;18.99;99.79;99164.44;5036242;28;20048;-76
2022/06/12 10:00:38;;;;;;;7.95;7.20;;;;;;;18.85;98.92;99141.75;5050546;28;20056;-74
2022/06/12 10:03:33;;;;;;;10.02;7.97;;;;;;;18.84;98.62;99162.78;5051530;28;20029;-73
2022/06/12 10:06:09;;;;;;;9.30;8.40;;;;;;;18.72;98.53;99161.94;5047672;28;20057;-71
2022/06/12 10:08:37;;;;;;;13.15;11.07;;;;;;;18.70;98.61;99152.19;5044970;28;20109;-70
2022/06/12 10:11:21;;;;;;;15.63;13.18;;;;;;;18.73;100.00;99151.41;5050164;28;20017;-73
2022/06/12 10:13:53;;;;;;;9.30;7.97;;;;;;;18.71;100.00;99148.97;5048782;28;20099;-71
2022/06/12 10:16:25;;;;;;;8.50;7.70;;;;;;;18.70;100.00;99146.53;5050486;28;20064;-72
2022/06/12 10:19:06;;;;;;;8.82;7.90;;;;;;;18.58;99.34;99144.88;5051896;28;20698;-70
2022/06/12 10:21:35;;;;;;;9.57;8.07;;;;;;;18.59;100.00;99147.31;5050055;28;20029;-71
2022/06/12 10:24:01;;;;;;;12.32;7.45;;;;;;;18.55;99.70;99145.69;5049661;28;20573;-70
2022/06/12 10:26:30;;;;;;;7.85;7.13;;;;;;;18.59;99.09;99153.00;5038655;28;20041;-71
2022/06/12 10:29:11;;;;;;;11.30;9.70;;;;;;;18.71;100.00;99145.34;5049700;28;20095;-79
2022/06/12 10:32:12;;;;;;;30.70;24.50;;;;;;;18.83;98.29;99152.66;5051819;28;20491;-71
2022/06/12 10:34:38;;;;;;;85.40;71.68;;;;;;;18.88;97.99;99138.94;5004292;28;20127;-73
2022/06/12 10:37:24;;;;;;;8.85;7.97;;;;;;;19.07;97.63;99146.28;5045948;28;20118;-73
2022/06/12 10:40:05;;;;;;;21.73;15.23;;;;;;;19.27;99.03;99145.13;5047331;28;20510;-82
2022/06/12 10:42:49;;;;;;;10.18;8.63;;;;;;;19.33;96.53;99143.50;5041396;28;20028;-75
2022/06/12 10:45:22;;;;;;;12.25;8.82;;;;;;;19.45;96.77;99140.28;5047205;28;20094;-77
2022/06/12 10:47:49;;;;;;;11.95;10.75;;;;;;;19.49;95.15;99135.41;5047077;28;20033;-75
2022/06/12 10:50:26;;;;;;;11.48;10.27;;;;;;;19.51;95.45;99129.34;5047113;28;20102;-76
2022/06/12 10:53:25;;;;;;;14.48;12.23;;;;;;;19.77;93.66;99145.13;5037508;28;20057;-72
2022/06/12 10:56:14;;;;;;;89.63;69.13;;;;;;;19.73;92.22;99135.00;4997386;28;20087;-77
2022/06/12 10:58:52;;;;;;;14.25;10.85;;;;;;;19.79;93.03;99139.06;5029184;28;20084;-74
2022/06/12 11:01:35;;;;;;;11.95;9.68;;;;;;;19.85;91.47;99142.31;5047224;28;20033;-74
2022/06/12 11:04:17;;;;;;;8.20;7.38;;;;;;;19.85;89.23;99142.31;5049058;28;20468;-79
2022/06/12 11:07:05;;;;;;;8.05;6.28;;;;;;;19.82;88.35;99135.41;5037051;28;20874;-73
2022/06/12 11:09:51;;;;;;;12.68;10.13;;;;;;;20.01;90.99;99124.88;5047526;28;20472;-74
2022/06/12 11:12:48;;;;;;;8.93;7.57;;;;;;;19.99;89.29;99122.44;5049827;28;20419;-73
2022/06/12 11:15:38;;;;;;;20.65;16.90;;;;;;;20.14;88.21;99125.25;5042828;28;20407;-73
2022/06/12 11:18:08;;;;;;;9.18;6.88;;;;;;;20.09;86.75;99125.69;5034572;28;20021;-78
2022/06/12 11:21:02;;;;;;;31.15;23.10;;;;;;;20.18;86.17;99126.06;5047365;28;20090;-77
2022/06/12 11:23:52;;;;;;;7.47;6.78;;;;;;;20.12;87.78;99125.69;5032876;28;20029;-73
2022/06/12 11:26:53;;;;;;;34.00;29.88;;;;;;;20.19;86.22;99124.84;5046836;28;20564;-82
2022/06/12 11:29:40;;;;;;;11.35;10.20;;;;;;;20.16;85.15;99132.16;5035415;28;20064;-87
2022/06/12 11:32:24;;;;;;;12.50;8.70;;;;;;;20.18;86.31;99117.56;5034669;28;20048;-75
2022/06/12 11:35:22;;;;;;;7.13;5.70;;;;;;;20.09;85.64;99114.31;5054545;28;20388;-78
2022/06/12 11:38:24;;;;;;;8.45;5.80;;;;;;;20.29;88.11;99126.84;5053412;28;20389;-74
2022/06/12 11:41:00;;;;;;;6.70;5.82;;;;;;;20.24;86.42;99115.91;5052174;28;20093;-76
2022/06/12 11:43:37;;;;;;;17.15;15.38;;;;;;;20.26;86.17;99113.47;5052406;28;20190;-80
2022/06/12 11:46:45;;;;;;;33.08;26.77;;;;;;;20.18;85.05;99126.06;5051965;28;20032;-78
2022/06/12 11:49:31;;;;;;;12.45;10.52;;;;;;;20.15;86.40;99119.19;5052321;28;20037;-79
2022/06/12 11:52:31;;;;;;;5.85;5.20;;;;;;;20.14;86.10;99116.75;5042305;28;20064;-78
2022/06/12 11:54:56;;;;;;;7.18;5.18;;;;;;;20.17;86.51;99122.41;5052879;28;20498;-80
2022/06/12 11:57:46;;;;;;;7.20;6.18;;;;;;;20.27;89.45;99120.78;5046562;28;20025;-74
2022/06/12 12:00:17;;;;;;;22.40;17.13;;;;;;;20.35;89.87;99118.72;5047133;28;20045;-80
2022/06/12 12:03:04;;;;;;;44.03;27.80;;;;;;;20.29;88.31;99115.50;5050860;28;20107;-73
2022/06/12 12:05:56;;;;;;;35.90;27.13;;;;;;;20.31;88.21;99113.06;5052071;28;20132;-75
2022/06/12 12:09:01;;;;;;;12.13;8.75;;;;;;;20.34;89.98;99131.31;5051285;28;20090;-81